createdAt,value
2023-03-25T00:02:31.111Z,10.97
2023-03-25T00:05:33.936Z,11.01
2023-03-25T00:08:37.263Z,11.05
2023-03-25T00:11:41.069Z,11.00
2023-03-25T00:14:55.219Z,10.65
2023-03-25T00:17:58.491Z,10.87
2023-03-25T00:21:02.750Z,10.96
2023-03-25T00:24:05.704Z,11.06
2023-03-25T00:27:10.792Z,11.11
2023-03-25T00:30:21.286Z,11.05
2023-03-25T00:33:24.012Z,11.01
2023-03-25T00:36:27.949Z,11.17
2023-03-25T00:39:30.904Z,11.20
2023-03-25T00:42:45.168Z,11.20
2023-03-25T00:45:49.747Z,11.23
2023-03-25T00:48:53.024Z,11.10
2023-03-25T00:51:58.746Z,11.20
2023-03-25T00:55:02.449Z,11.07
2023-03-25T00:58:06.176Z,10.75
2023-03-25T01:01:17.386Z,10.88
2023-03-25T01:04:20.287Z,10.99
2023-03-25T01:07:25.561Z,11.03
2023-03-25T01:10:28.457Z,10.97
2023-03-25T01:13:32.658Z,10.78
2023-03-25T01:16:35.679Z,10.89
2023-03-25T01:19:40.057Z,10.80
2023-03-25T01:22:42.697Z,10.92
2023-03-25T01:25:47.091Z,10.90
2023-03-25T01:28:51.480Z,11.04
2023-03-25T01:31:56.262Z,11.00
2023-03-25T01:34:59.109Z,10.78
2023-03-25T01:38:08.224Z,10.79
2023-03-25T01:41:13.620Z,11.00
2023-03-25T01:44:20.128Z,11.13
2023-03-25T01:47:27.031Z,11.25
2023-03-25T01:50:29.908Z,11.32
2023-03-25T01:53:35.896Z,11.33
2023-03-25T01:56:43.011Z,11.40
2023-03-25T01:59:46.172Z,11.36
2023-03-25T02:02:51.695Z,11.33
2023-03-25T02:06:15.789Z,11.33
2023-03-25T02:09:21.510Z,11.31
2023-03-25T02:12:26.024Z,11.37
2023-03-25T02:15:31.953Z,11.39
2023-03-25T02:19:06.287Z,11.39
2023-03-25T02:22:15.021Z,11.34
2023-03-25T02:25:19.547Z,11.33
2023-03-25T02:28:37.387Z,11.22
2023-03-25T02:31:45.190Z,11.10
2023-03-25T02:35:09.840Z,11.13
2023-03-25T02:38:19.691Z,11.16
2023-03-25T02:41:38.566Z,11.17
2023-03-25T02:45:08.382Z,11.07
2023-03-25T02:48:45.832Z,10.98
2023-03-25T02:52:04.648Z,11.02
2023-03-25T02:55:12.823Z,11.01
2023-03-25T02:58:18.373Z,11.02
2023-03-25T03:01:23.121Z,10.91
2023-03-25T03:04:28.231Z,10.98
2023-03-25T03:07:34.971Z,10.93
2023-03-25T03:11:11.263Z,10.90
2023-03-25T03:14:44.953Z,10.91
2023-03-25T03:18:13.618Z,10.76
2023-03-25T03:21:23.530Z,10.82
2023-03-25T03:24:32.367Z,10.83
2023-03-25T03:28:14.648Z,10.93
2023-03-25T03:31:48.836Z,10.86
2023-03-25T03:34:56.623Z,10.85
2023-03-25T03:38:06.585Z,10.96
2023-03-25T03:41:12.773Z,10.86
2023-03-25T03:44:21.570Z,10.83
2023-03-25T03:47:30.870Z,10.75
2023-03-25T03:50:39.134Z,10.75
2023-03-25T03:54:04.745Z,10.74
2023-03-25T03:57:14.333Z,10.75
2023-03-25T04:00:24.419Z,10.69
2023-03-25T04:03:35.203Z,10.70
2023-03-25T04:06:42.668Z,10.62
2023-03-25T04:09:55.421Z,10.54
2023-03-25T04:13:01.896Z,10.59
2023-03-25T04:16:05.295Z,10.59
2023-03-25T04:19:13.899Z,10.62
2023-03-25T04:22:23.610Z,10.54
2023-03-25T04:25:26.678Z,10.53
2023-03-25T04:28:32.377Z,10.53
2023-03-25T04:31:35.460Z,10.52
2023-03-25T04:34:38.798Z,10.59
2023-03-25T04:37:42.050Z,10.47
2023-03-25T04:40:48.057Z,10.57
2023-03-25T04:43:50.842Z,10.64
2023-03-25T04:46:54.271Z,10.54
2023-03-25T04:49:57.006Z,10.53
2023-03-25T04:53:03.249Z,10.62
2023-03-25T04:56:07.261Z,10.38
2023-03-25T04:59:10.971Z,10.31
2023-03-25T05:02:13.981Z,10.29
2023-03-25T05:05:19.308Z,10.22
2023-03-25T05:08:23.061Z,10.35
2023-03-25T05:11:29.393Z,10.30
2023-03-25T05:14:32.179Z,10.42
2023-03-25T05:17:35.313Z,10.48
2023-03-25T05:20:41.435Z,10.37
2023-03-25T05:23:44.968Z,10.50
2023-03-25T05:26:48.216Z,10.59
2023-03-25T05:29:51.014Z,10.59
2023-03-25T05:32:56.555Z,10.65
2023-03-25T05:36:01.859Z,10.66
2023-03-25T05:39:05.882Z,10.63
2023-03-25T05:42:11.822Z,10.51
2023-03-25T05:45:19.204Z,10.41
2023-03-25T05:48:21.978Z,10.66
2023-03-25T05:51:26.327Z,10.84
2023-03-25T05:54:29.774Z,10.99
2023-03-25T05:57:32.982Z,11.15
2023-03-25T06:00:37.247Z,11.13
2023-03-25T06:03:43.481Z,11.35
2023-03-25T06:06:46.422Z,11.70
2023-03-25T06:09:50.012Z,11.81
2023-03-25T06:12:53.371Z,11.86
2023-03-25T06:15:57.780Z,12.02
2023-03-25T06:19:00.940Z,11.81
2023-03-25T06:22:09.679Z,11.89
2023-03-25T06:25:17.727Z,11.73
2023-03-25T06:28:21.074Z,12.55
2023-03-25T06:31:26.946Z,13.04
2023-03-25T06:34:30.039Z,12.96
2023-03-25T06:37:34.017Z,12.66
2023-03-25T06:40:43.949Z,12.89
2023-03-25T06:43:47.989Z,13.62
2023-03-25T06:47:26.148Z,13.46
2023-03-25T06:50:29.195Z,13.64
2023-03-25T06:53:33.124Z,13.54
2023-03-25T06:56:36.203Z,12.82
2023-03-25T06:59:39.332Z,12.94
2023-03-25T07:02:42.322Z,12.98
2023-03-25T07:05:47.005Z,12.70
2023-03-25T07:08:49.991Z,12.67
2023-03-25T07:11:56.020Z,12.97
2023-03-25T07:14:59.430Z,12.83
2023-03-25T07:18:03.243Z,12.66
2023-03-25T07:21:06.360Z,12.46
2023-03-25T07:24:11.239Z,12.66
2023-03-25T07:27:14.965Z,12.87
2023-03-25T07:30:24.907Z,13.02
2023-03-25T07:33:27.719Z,12.39
2023-03-25T07:36:30.779Z,12.59
2023-03-25T07:39:33.514Z,12.65
2023-03-25T07:42:37.877Z,12.79
2023-03-25T07:45:52.264Z,12.74
2023-03-25T07:48:55.206Z,12.83
2023-03-25T07:51:58.002Z,13.39
2023-03-25T07:55:01.293Z,13.75
2023-03-25T07:58:04.012Z,13.84
2023-03-25T08:01:07.268Z,14.11
2023-03-25T08:04:10.220Z,13.88
2023-03-25T08:07:13.289Z,13.80
2023-03-25T08:10:17.222Z,14.00
2023-03-25T08:13:20.744Z,14.32
2023-03-25T08:16:23.841Z,14.46
2023-03-25T08:19:28.009Z,14.38
2023-03-25T08:22:30.861Z,13.96
2023-03-25T08:25:34.022Z,14.19
2023-03-25T08:28:36.720Z,13.10
2023-03-25T08:31:41.270Z,13.01
2023-03-25T08:34:44.058Z,12.78
2023-03-25T08:37:46.890Z,12.72
2023-03-25T08:40:49.977Z,12.72
2023-03-25T08:43:53.569Z,13.13
2023-03-25T08:46:56.667Z,13.35
2023-03-25T08:49:59.784Z,13.56
2023-03-25T08:53:02.733Z,13.42
2023-03-25T08:56:07.553Z,14.09
2023-03-25T08:59:10.547Z,14.11
2023-03-25T09:02:13.672Z,13.33
2023-03-25T09:05:17.115Z,13.82
2023-03-25T09:08:20.038Z,13.85
2023-03-25T09:11:33.894Z,14.27
2023-03-25T09:14:39.400Z,13.51
2023-03-25T09:17:43.225Z,13.19
2023-03-25T09:20:48.794Z,13.12
2023-03-25T09:23:51.579Z,13.26
2023-03-25T09:26:54.264Z,14.14
2023-03-25T09:29:57.117Z,14.82
2023-03-25T09:33:01.503Z,14.23
2023-03-25T09:36:04.677Z,13.89
2023-03-25T09:39:08.883Z,13.79
2023-03-25T09:42:31.371Z,13.41
2023-03-25T09:45:37.354Z,13.18
2023-03-25T09:48:43.009Z,14.03
2023-03-25T09:51:47.001Z,14.24
2023-03-25T09:54:55.891Z,14.48
2023-03-25T09:58:57.086Z,13.88
2023-03-25T10:02:03.586Z,14.01
2023-03-25T10:05:34.859Z,14.62
2023-03-25T10:09:02.342Z,14.00
2023-03-25T10:12:30.379Z,13.93
2023-03-25T10:15:39.785Z,14.55
2023-03-25T10:18:54.890Z,14.67
2023-03-25T10:22:26.016Z,14.90
2023-03-25T10:25:32.298Z,14.03
2023-03-25T10:28:39.010Z,14.08
2023-03-25T10:31:51.145Z,14.22
2023-03-25T10:34:56.460Z,14.86
2023-03-25T10:38:06.588Z,13.99
2023-03-25T10:41:17.855Z,14.25
2023-03-25T10:44:21.879Z,14.08
2023-03-25T10:47:28.367Z,14.60
2023-03-25T10:50:31.306Z,14.51
2023-03-25T10:53:34.783Z,14.65
2023-03-25T10:56:42.866Z,14.37
2023-03-25T11:00:29.822Z,14.60
2023-03-25T11:03:35.820Z,15.14
2023-03-25T11:06:41.591Z,14.80
2023-03-25T11:09:44.503Z,14.82
2023-03-25T11:12:48.547Z,15.05
2023-03-25T11:15:56.404Z,14.71
2023-03-25T11:19:02.373Z,14.97
2023-03-25T11:22:16.573Z,15.16
2023-03-25T11:25:24.579Z,15.36
2023-03-25T11:28:45.761Z,15.37
2023-03-25T11:32:06.942Z,15.15
2023-03-25T11:35:17.110Z,14.43
2023-03-25T11:38:23.238Z,14.81
2023-03-25T11:41:29.779Z,14.06
2023-03-25T11:44:33.305Z,14.97
2023-03-25T11:47:39.586Z,14.94
2023-03-25T11:50:55.040Z,14.22
2023-03-25T11:54:00.345Z,14.18
2023-03-25T11:57:07.948Z,13.87
2023-03-25T12:00:36.117Z,14.32
2023-03-25T12:03:42.508Z,14.32
2023-03-25T12:07:09.802Z,14.21
2023-03-25T12:10:36.147Z,14.06
2023-03-25T12:13:54.142Z,13.80
2023-03-25T12:17:21.697Z,14.05
2023-03-25T12:20:33.000Z,14.81
2023-03-25T12:24:19.165Z,15.08
2023-03-25T12:27:38.284Z,14.66
2023-03-25T12:31:07.167Z,14.65
2023-03-25T12:34:30.892Z,14.69
2023-03-25T12:37:45.156Z,14.28
2023-03-25T12:40:55.141Z,13.95
2023-03-25T12:43:59.179Z,14.22
2023-03-25T12:47:08.745Z,13.85
2023-03-25T12:50:49.532Z,13.65
2023-03-25T12:53:52.412Z,13.14
2023-03-25T12:57:14.054Z,13.41
2023-03-25T13:00:42.838Z,13.04
2023-03-25T13:04:13.591Z,12.70
2023-03-25T13:07:20.111Z,12.59
2023-03-25T13:10:25.600Z,13.02
2023-03-25T13:13:30.337Z,13.12
2023-03-25T13:16:35.644Z,12.92
2023-03-25T13:19:44.362Z,12.77
2023-03-25T13:22:51.801Z,12.79
2023-03-25T13:26:12.230Z,12.83
2023-03-25T13:29:22.464Z,13.06
2023-03-25T13:32:39.699Z,12.96
2023-03-25T13:36:06.328Z,12.74
2023-03-25T13:39:22.499Z,12.69
2023-03-25T13:42:52.601Z,12.97
2023-03-25T13:46:00.807Z,12.71
2023-03-25T13:49:15.887Z,12.54
2023-03-25T13:52:18.854Z,12.24
2023-03-25T13:55:35.975Z,12.37
2023-03-25T13:58:54.090Z,12.58
2023-03-25T14:02:15.391Z,13.10
2023-03-25T14:05:42.254Z,13.71
2023-03-25T14:09:10.404Z,13.58
2023-03-25T14:12:16.797Z,13.24
2023-03-25T14:15:38.866Z,13.09
2023-03-25T14:19:03.579Z,13.20
2023-03-25T14:22:08.910Z,13.14
2023-03-25T14:25:23.020Z,13.40
2023-03-25T14:28:43.677Z,13.43
2023-03-25T14:32:06.081Z,13.56
2023-03-25T14:35:34.410Z,13.82
2023-03-25T14:38:54.710Z,14.05
2023-03-25T14:42:13.765Z,13.31
2023-03-25T14:45:34.919Z,13.03
2023-03-25T14:48:52.935Z,12.72
2023-03-25T14:51:58.405Z,13.09
2023-03-25T14:55:07.103Z,12.94
2023-03-25T14:58:27.188Z,12.99
2023-03-25T15:01:35.956Z,13.01
2023-03-25T15:04:39.493Z,12.98
2023-03-25T15:07:48.609Z,12.96
2023-03-25T15:11:13.718Z,12.91
2023-03-25T15:14:21.383Z,12.91
2023-03-25T15:17:46.307Z,12.88
2023-03-25T15:20:49.102Z,12.98
2023-03-25T15:23:59.555Z,12.99
2023-03-25T15:27:40.198Z,13.22
2023-03-25T15:31:01.573Z,13.32
2023-03-25T15:34:24.972Z,13.25
2023-03-25T15:37:46.681Z,13.37
2023-03-25T15:40:59.586Z,13.21
2023-03-25T15:44:06.197Z,12.92
2023-03-25T15:47:29.050Z,12.91
2023-03-25T15:50:38.065Z,12.72
2023-03-25T15:54:08.912Z,12.53
2023-03-25T15:57:19.131Z,12.54
2023-03-25T16:00:41.625Z,12.71
2023-03-25T16:03:45.453Z,12.64
2023-03-25T16:06:51.437Z,12.65
2023-03-25T16:09:55.767Z,12.72
2023-03-25T16:13:02.241Z,12.99
2023-03-25T16:16:07.412Z,13.29
2023-03-25T16:19:23.106Z,13.32
2023-03-25T16:22:30.852Z,13.29
2023-03-25T16:25:42.145Z,12.86
2023-03-25T16:28:45.183Z,12.63
2023-03-25T16:31:59.811Z,12.66
2023-03-25T16:35:02.760Z,12.57
2023-03-25T16:38:06.646Z,12.35
2023-03-25T16:41:14.851Z,12.38
2023-03-25T16:44:23.307Z,12.25
2023-03-25T16:47:26.473Z,12.20
2023-03-25T16:50:29.266Z,12.03
2023-03-25T16:53:40.280Z,11.93
2023-03-25T16:56:51.190Z,11.85
2023-03-25T16:59:57.737Z,11.65
2023-03-25T17:03:02.163Z,11.73
2023-03-25T17:06:20.470Z,11.65
2023-03-25T17:09:28.673Z,11.39
2023-03-25T17:12:31.674Z,11.51
2023-03-25T17:15:34.969Z,11.45
2023-03-25T17:18:40.674Z,11.39
2023-03-25T17:22:04.023Z,11.26
2023-03-25T17:25:26.788Z,11.17
2023-03-25T17:28:39.320Z,11.13
2023-03-25T17:31:42.338Z,11.10
2023-03-25T17:34:46.957Z,11.03
2023-03-25T17:37:50.945Z,11.04
2023-03-25T17:41:02.888Z,10.91
2023-03-25T17:44:06.713Z,10.82
2023-03-25T17:47:15.670Z,10.64
2023-03-25T17:50:21.491Z,10.38
2023-03-25T17:53:25.059Z,10.27
2023-03-25T17:56:29.075Z,10.19
2023-03-25T17:59:32.015Z,10.04
2023-03-25T18:02:42.029Z,10.04
2023-03-25T18:05:45.989Z,10.13
2023-03-25T18:08:49.334Z,10.08
2023-03-25T18:11:57.180Z,10.02
2023-03-25T18:14:59.987Z,10.08
2023-03-25T18:18:04.611Z,10.06
2023-03-25T18:21:11.598Z,10.11
2023-03-25T18:24:14.956Z,10.07
2023-03-25T18:27:17.850Z,10.13
2023-03-25T18:30:36.031Z,10.22
2023-03-25T18:33:38.841Z,10.38
2023-03-25T18:36:46.089Z,10.60
2023-03-25T18:39:49.458Z,10.61
2023-03-25T18:42:53.045Z,10.51
2023-03-25T18:45:56.555Z,10.44
2023-03-25T18:49:02.965Z,10.43
2023-03-25T18:52:06.058Z,10.48
2023-03-25T18:55:09.937Z,10.46
2023-03-25T18:58:20.145Z,10.37
2023-03-25T19:01:24.204Z,10.34
2023-03-25T19:04:27.592Z,10.24
2023-03-25T19:07:30.442Z,10.25
2023-03-25T19:10:35.611Z,10.23
2023-03-25T19:13:38.626Z,10.24
2023-03-25T19:16:46.098Z,10.15
2023-03-25T19:19:54.339Z,10.12
2023-03-25T19:22:57.745Z,9.98
2023-03-25T19:26:01.606Z,9.88
2023-03-25T19:29:04.746Z,9.79
2023-03-25T19:32:07.658Z,9.91
2023-03-25T19:35:12.957Z,9.69
2023-03-25T19:38:20.056Z,9.68
2023-03-25T19:41:23.301Z,9.64
2023-03-25T19:44:26.178Z,9.63
2023-03-25T19:47:29.235Z,9.56
2023-03-25T19:50:33.457Z,9.48
2023-03-25T19:53:36.460Z,9.52
2023-03-25T19:56:40.030Z,9.47
2023-03-25T19:59:44.570Z,9.39
2023-03-25T20:02:50.567Z,9.35
2023-03-25T20:06:00.677Z,9.41
2023-03-25T20:09:06.760Z,9.26
2023-03-25T20:12:09.594Z,9.25
2023-03-25T20:15:13.485Z,9.22
2023-03-25T20:18:16.895Z,9.19
2023-03-25T20:21:22.024Z,9.20
2023-03-25T20:24:25.116Z,9.14
2023-03-25T20:27:28.908Z,9.12
2023-03-25T20:30:34.606Z,9.11
2023-03-25T20:33:37.349Z,9.03
2023-03-25T20:36:40.755Z,9.00
2023-03-25T20:39:43.744Z,8.96
2023-03-25T20:42:48.003Z,8.89
2023-03-25T20:45:55.979Z,8.81
2023-03-25T20:48:59.229Z,8.80
2023-03-25T20:52:02.174Z,8.81
2023-03-25T20:55:06.129Z,8.73
2023-03-25T20:58:09.358Z,8.63
2023-03-25T21:01:12.478Z,8.72
2023-03-25T21:04:15.695Z,8.66
2023-03-25T21:07:19.702Z,8.63
2023-03-25T21:10:22.668Z,8.66
2023-03-25T21:13:31.790Z,8.68
2023-03-25T21:16:34.563Z,8.53
2023-03-25T21:19:37.797Z,8.46
2023-03-25T21:22:44.724Z,8.42
2023-03-25T21:25:50.496Z,8.49
2023-03-25T21:28:53.522Z,8.46
2023-03-25T21:31:56.773Z,8.58
2023-03-25T21:35:00.180Z,8.34
2023-03-25T21:38:07.655Z,8.36
2023-03-25T21:41:11.102Z,8.37
2023-03-25T21:44:16.290Z,8.43
2023-03-25T21:47:18.998Z,8.41
2023-03-25T21:50:22.193Z,8.32
2023-03-25T21:53:31.689Z,8.31
2023-03-25T21:56:35.193Z,8.29
2023-03-25T21:59:38.225Z,8.27
2023-03-25T22:02:44.909Z,8.23
2023-03-25T22:05:47.860Z,8.21
2023-03-25T22:08:51.124Z,8.18
2023-03-25T22:11:53.991Z,8.19
2023-03-25T22:14:56.815Z,8.20
2023-03-25T22:17:59.598Z,8.18
2023-03-25T22:21:10.067Z,8.20
2023-03-25T22:24:12.884Z,8.18
2023-03-25T22:27:15.901Z,8.12
2023-03-25T22:30:18.624Z,8.12
2023-03-25T22:33:21.690Z,8.07
2023-03-25T22:36:24.546Z,8.01
2023-03-25T22:39:28.801Z,8.00
2023-03-25T22:42:31.487Z,8.01
2023-03-25T22:45:34.284Z,7.98
2023-03-25T22:48:39.634Z,8.01
2023-03-25T22:51:42.655Z,8.04
2023-03-25T22:54:45.357Z,8.02
2023-03-25T22:57:48.024Z,8.04
2023-03-25T23:00:51.274Z,7.95
2023-03-25T23:03:57.680Z,7.89
2023-03-25T23:07:07.709Z,7.95
2023-03-25T23:10:14.073Z,7.99
2023-03-25T23:13:19.796Z,8.07
2023-03-25T23:16:26.137Z,8.05
2023-03-25T23:19:28.847Z,8.08
2023-03-25T23:22:32.014Z,8.20
2023-03-25T23:25:35.078Z,8.16
2023-03-25T23:28:38.219Z,8.15
2023-03-25T23:31:43.044Z,8.11
2023-03-25T23:34:45.746Z,8.25
2023-03-25T23:37:50.541Z,8.23
2023-03-25T23:41:10.780Z,8.29
2023-03-25T23:44:13.954Z,8.29
2023-03-25T23:47:17.216Z,8.31
2023-03-25T23:50:19.913Z,8.32
2023-03-25T23:53:23.732Z,8.36
2023-03-25T23:56:26.516Z,8.18
2023-03-25T23:59:29.224Z,8.24
